Fort Hood, Texas
Current Conditions -  °F | °C
As of 6:56 PM on Wednesday 22 Oct 2014 (Local Time) from KHLR Reporting Station
Clear Clear  
Wind Chill: 76°   Ceiling: Unl
Heat Index: 76°   Visibility: 10mi
Dew Point: 60°   Wind: 3mph
Humidity: 58%   Direction: 70°ENE
Pressure: 30.08"   Gusts: NA
Location:  31.2151°N, 97.7405°W
Report Text: KHLR 222356Z 07003KT 10SM CLR 24/16 A3008 RMK AO2 SLPNO 56020 T02440156 10289 20244 $
Loading
Personal Weather Stations






























Interactive Weather Map New forecast layout! Learn more

10-Day Weather Forecast

Advertisements
Track Severe Weather on mobile